Portada
METAR-TAF:

METAR-TAF

Aeroports :

Aeroport de Svalbard-Longyear

Longyearbyen, Noruega

latitud: 78-15N, longitud: 015-28E, altitud: 2 m

Observació

L'informe es va fer fa 41 minuts, a les 15:50 UTC
Vent 2 kt amb direcció variable
Temperatura -10°C
Humitat 72%
Pressió 1003 hPa
Visibilitat 10 km o més
Escasses núvols a una alçada de 3000 ft
Cel ennuvolat a una alçada de 7000 ft

METAR: ENSB 261550Z VRB02KT 9999 FEW030 BKN070 M10/M14 Q1003 RMK WIND 1400FT 12004KT

Hora: 17:31 (16:31 UTC)

Pronòstic

Pronòstic vàlid del 26 a les 12 UTC al 27 a les 12 UTC
Vent 15 kt del Est/Sud-Est
Visibilitat 10 km o més
Escasses núvols a una alçada de 1000 ft
Cel ennuvolat a una alçada de 2000 ft
Evolucionant progressivament
l' 27 a les 00 UTC al 27 a les 03 UTC
Vent 25 kt del Est/Sud-Est

TAF: ENSB 2612/2712 12015KT 9999 FEW010 BKN020 BECMG 2700/2703 12025KT

Observacions i pronòstics meteorològics de més de 4000 aeroports (METAR i TAF).

Les estacions disponibles són els punts grocs i vermells al mapa.

Posi el ratolí al punt desitjat per veure el nom de l'estació.

Feu clic per veure les observacions i els pronòstics meteorològics.

Per canviar el mapa: feu clic els botons verds amb una creu de color negre per apropar; al botó verd amb un guió per allunyar la imatge; o en les fletxes verdes per a mapes adjacents.


METAR-TAF: